sensor_id;sensor_type;location;lat;lon;timestamp;P1;durP1;ratioP1;P2;durP2;ratioP2
71558;SDS011;59382;43.852;25.952;2023-02-28T00:00:15;6.38;;;3.83;;
71558;SDS011;59382;43.852;25.952;2023-02-28T00:02:42;4.43;;;4.00;;
71558;SDS011;59382;43.852;25.952;2023-02-28T00:05:09;6.85;;;3.92;;
71558;SDS011;59382;43.852;25.952;2023-02-28T00:07:35;5.93;;;3.60;;
71558;SDS011;59382;43.852;25.952;2023-02-28T00:10:02;6.28;;;4.35;;
71558;SDS011;59382;43.852;25.952;2023-02-28T00:12:28;3.78;;;3.47;;
71558;SDS011;59382;43.852;25.952;2023-02-28T00:14:53;5.43;;;3.88;;
71558;SDS011;59382;43.852;25.952;2023-02-28T00:17:19;5.90;;;3.65;;
71558;SDS011;59382;43.852;25.952;2023-02-28T00:19:49;8.30;;;4.18;;
71558;SDS011;59382;43.852;25.952;2023-02-28T00:22:16;6.70;;;4.25;;
71558;SDS011;59382;43.852;25.952;2023-02-28T00:24:42;9.20;;;3.88;;
71558;SDS011;59382;43.852;25.952;2023-02-28T00:27:08;6.88;;;4.25;;
71558;SDS011;59382;43.852;25.952;2023-02-28T00:29:34;7.82;;;3.47;;
71558;SDS011;59382;43.852;25.952;2023-02-28T00:31:59;10.43;;;3.90;;
71558;SDS011;59382;43.852;25.952;2023-02-28T00:34:25;6.82;;;3.40;;
71558;SDS011;59382;43.852;25.952;2023-02-28T00:36:50;6.55;;;3.80;;
71558;SDS011;59382;43.852;25.952;2023-02-28T00:39:16;5.00;;;4.00;;
71558;SDS011;59382;43.852;25.952;2023-02-28T00:41:42;4.38;;;3.53;;
71558;SDS011;59382;43.852;25.952;2023-02-28T00:44:07;7.22;;;4.03;;
71558;SDS011;59382;43.852;25.952;2023-02-28T00:46:33;6.05;;;3.70;;
71558;SDS011;59382;43.852;25.952;2023-02-28T00:48:58;6.43;;;4.22;;
71558;SDS011;59382;43.852;25.952;2023-02-28T00:51:24;9.98;;;4.00;;
71558;SDS011;59382;43.852;25.952;2023-02-28T00:53:49;7.50;;;3.92;;
71558;SDS011;59382;43.852;25.952;2023-02-28T00:56:15;6.25;;;4.10;;
71558;SDS011;59382;43.852;25.952;2023-02-28T00:58:40;4.55;;;3.85;;
71558;SDS011;59382;43.852;25.952;2023-02-28T01:01:06;4.93;;;4.10;;
71558;SDS011;59382;43.852;25.952;2023-02-28T01:03:32;6.38;;;4.15;;
71558;SDS011;59382;43.852;25.952;2023-02-28T01:05:58;7.50;;;3.60;;
71558;SDS011;59382;43.852;25.952;2023-02-28T01:08:23;4.60;;;4.13;;
71558;SDS011;59382;43.852;25.952;2023-02-28T01:10:51;5.07;;;4.43;;
71558;SDS011;59382;43.852;25.952;2023-02-28T01:13:19;8.85;;;4.20;;
71558;SDS011;59382;43.852;25.952;2023-02-28T01:16:03;5.57;;;4.18;;
71558;SDS011;59382;43.852;25.952;2023-02-28T01:18:29;4.80;;;3.90;;
71558;SDS011;59382;43.852;25.952;2023-02-28T01:21:02;5.70;;;4.28;;
71558;SDS011;59382;43.852;25.952;2023-02-28T01:23:32;6.03;;;4.32;;
71558;SDS011;59382;43.852;25.952;2023-02-28T01:26:03;6.10;;;4.45;;
71558;SDS011;59382;43.852;25.952;2023-02-28T01:28:33;4.68;;;3.70;;
71558;SDS011;59382;43.852;25.952;2023-02-28T01:30:59;5.43;;;4.50;;
71558;SDS011;59382;43.852;25.952;2023-02-28T01:33:25;5.95;;;3.90;;
71558;SDS011;59382;43.852;25.952;2023-02-28T01:35:57;6.00;;;4.47;;
71558;SDS011;59382;43.852;25.952;2023-02-28T01:38:28;4.93;;;3.75;;
71558;SDS011;59382;43.852;25.952;2023-02-28T01:40:54;5.25;;;4.40;;
71558;SDS011;59382;43.852;25.952;2023-02-28T01:43:24;5.20;;;3.72;;
71558;SDS011;59382;43.852;25.952;2023-02-28T01:45:55;5.18;;;4.20;;
71558;SDS011;59382;43.852;25.952;2023-02-28T01:48:32;7.93;;;4.50;;
71558;SDS011;59382;43.852;25.952;2023-02-28T01:51:05;6.38;;;3.80;;
71558;SDS011;59382;43.852;25.952;2023-02-28T01:53:39;4.03;;;3.25;;
71558;SDS011;59382;43.852;25.952;2023-02-28T01:56:11;6.72;;;4.20;;
71558;SDS011;59382;43.852;25.952;2023-02-28T01:58:46;3.90;;;3.50;;
71558;SDS011;59382;43.852;25.952;2023-02-28T02:01:13;4.15;;;3.75;;
71558;SDS011;59382;43.852;25.952;2023-02-28T02:03:56;5.65;;;4.03;;
71558;SDS011;59382;43.852;25.952;2023-02-28T02:06:27;7.80;;;4.65;;
71558;SDS011;59382;43.852;25.952;2023-02-28T02:08:59;5.68;;;4.00;;
71558;SDS011;59382;43.852;25.952;2023-02-28T02:11:24;4.07;;;3.47;;
71558;SDS011;59382;43.852;25.952;2023-02-28T02:13:58;4.90;;;4.32;;
71558;SDS011;59382;43.852;25.952;2023-02-28T02:37:15;4.43;;;3.85;;
71558;SDS011;59382;43.852;25.952;2023-02-28T02:39:48;6.65;;;3.63;;
71558;SDS011;59382;43.852;25.952;2023-02-28T02:45:17;6.00;;;4.03;;
71558;SDS011;59382;43.852;25.952;2023-02-28T02:47:49;5.25;;;4.03;;
71558;SDS011;59382;43.852;25.952;2023-02-28T02:50:21;5.65;;;4.53;;
71558;SDS011;59382;43.852;25.952;2023-02-28T02:52:52;5.28;;;3.90;;
71558;SDS011;59382;43.852;25.952;2023-02-28T02:55:22;7.82;;;4.18;;
71558;SDS011;59382;43.852;25.952;2023-02-28T02:57:49;6.55;;;4.47;;
71558;SDS011;59382;43.852;25.952;2023-02-28T03:00:20;8.68;;;4.43;;
71558;SDS011;59382;43.852;25.952;2023-02-28T03:02:50;7.25;;;4.57;;
71558;SDS011;59382;43.852;25.952;2023-02-28T03:05:30;5.05;;;4.50;;
71558;SDS011;59382;43.852;25.952;2023-02-28T03:08:03;5.45;;;4.47;;
71558;SDS011;59382;43.852;25.952;2023-02-28T03:10:35;6.40;;;5.15;;
71558;SDS011;59382;43.852;25.952;2023-02-28T03:13:49;6.35;;;5.20;;
71558;SDS011;59382;43.852;25.952;2023-02-28T03:27:19;8.45;;;5.47;;
71558;SDS011;59382;43.852;25.952;2023-02-28T03:30:34;7.65;;;5.78;;
71558;SDS011;59382;43.852;25.952;2023-02-28T03:32:53;8.10;;;6.07;;
71558;SDS011;59382;43.852;25.952;2023-02-28T03:35:23;8.48;;;6.38;;
71558;SDS011;59382;43.852;25.952;2023-02-28T03:37:56;7.82;;;6.35;;
71558;SDS011;59382;43.852;25.952;2023-02-28T03:40:30;12.40;;;7.07;;
71558;SDS011;59382;43.852;25.952;2023-02-28T03:43:09;8.77;;;6.43;;
71558;SDS011;59382;43.852;25.952;2023-02-28T03:45:38;13.90;;;7.13;;
71558;SDS011;59382;43.852;25.952;2023-02-28T03:48:13;8.20;;;5.95;;
71558;SDS011;59382;43.852;25.952;2023-02-28T03:50:41;7.28;;;6.28;;
71558;SDS011;59382;43.852;25.952;2023-02-28T03:55:56;10.68;;;6.45;;
71558;SDS011;59382;43.852;25.952;2023-02-28T03:58:30;10.00;;;6.70;;
71558;SDS011;59382;43.852;25.952;2023-02-28T04:01:16;10.13;;;6.97;;
71558;SDS011;59382;43.852;25.952;2023-02-28T04:03:51;9.82;;;6.80;;
71558;SDS011;59382;43.852;25.952;2023-02-28T04:06:18;10.68;;;6.97;;
71558;SDS011;59382;43.852;25.952;2023-02-28T04:08:46;11.02;;;7.10;;
71558;SDS011;59382;43.852;25.952;2023-02-28T04:13:57;9.82;;;7.00;;
71558;SDS011;59382;43.852;25.952;2023-02-28T04:16:23;12.05;;;7.25;;
71558;SDS011;59382;43.852;25.952;2023-02-28T04:18:49;13.35;;;7.88;;
71558;SDS011;59382;43.852;25.952;2023-02-28T04:21:14;10.45;;;7.57;;
71558;SDS011;59382;43.852;25.952;2023-02-28T04:23:40;10.50;;;7.00;;
71558;SDS011;59382;43.852;25.952;2023-02-28T04:26:05;11.55;;;7.75;;
71558;SDS011;59382;43.852;25.952;2023-02-28T04:28:31;10.75;;;7.47;;
71558;SDS011;59382;43.852;25.952;2023-02-28T04:31:02;13.35;;;7.50;;
71558;SDS011;59382;43.852;25.952;2023-02-28T04:33:32;10.68;;;7.53;;
71558;SDS011;59382;43.852;25.952;2023-02-28T04:35:59;11.35;;;7.72;;
71558;SDS011;59382;43.852;25.952;2023-02-28T04:38:29;10.02;;;7.18;;
71558;SDS011;59382;43.852;25.952;2023-02-28T04:40:58;9.82;;;7.30;;
71558;SDS011;59382;43.852;25.952;2023-02-28T04:43:25;10.23;;;7.70;;
71558;SDS011;59382;43.852;25.952;2023-02-28T04:45:52;11.85;;;8.20;;
71558;SDS011;59382;43.852;25.952;2023-02-28T04:48:17;11.30;;;8.35;;
71558;SDS011;59382;43.852;25.952;2023-02-28T04:50:43;15.20;;;8.73;;
71558;SDS011;59382;43.852;25.952;2023-02-28T04:53:08;13.90;;;9.32;;
71558;SDS011;59382;43.852;25.952;2023-02-28T04:55:35;12.10;;;8.38;;
71558;SDS011;59382;43.852;25.952;2023-02-28T04:58:00;13.85;;;9.07;;
71558;SDS011;59382;43.852;25.952;2023-02-28T05:00:26;12.95;;;8.93;;
71558;SDS011;59382;43.852;25.952;2023-02-28T05:02:51;14.85;;;9.35;;
71558;SDS011;59382;43.852;25.952;2023-02-28T05:05:17;14.45;;;9.15;;
71558;SDS011;59382;43.852;25.952;2023-02-28T05:07:44;16.85;;;10.00;;
71558;SDS011;59382;43.852;25.952;2023-02-28T05:10:10;13.68;;;9.77;;
71558;SDS011;59382;43.852;25.952;2023-02-28T05:12:36;14.93;;;9.15;;
71558;SDS011;59382;43.852;25.952;2023-02-28T05:15:02;16.40;;;10.00;;
71558;SDS011;59382;43.852;25.952;2023-02-28T05:17:30;15.50;;;9.85;;
71558;SDS011;59382;43.852;25.952;2023-02-28T05:19:55;15.65;;;9.85;;
71558;SDS011;59382;43.852;25.952;2023-02-28T05:22:21;16.13;;;9.65;;
71558;SDS011;59382;43.852;25.952;2023-02-28T05:24:47;14.65;;;9.32;;
71558;SDS011;59382;43.852;25.952;2023-02-28T05:27:12;17.42;;;9.55;;
71558;SDS011;59382;43.852;25.952;2023-02-28T05:29:38;13.25;;;9.10;;
71558;SDS011;59382;43.852;25.952;2023-02-28T05:32:08;16.63;;;8.98;;
71558;SDS011;59382;43.852;25.952;2023-02-28T05:34:35;16.77;;;10.32;;
71558;SDS011;59382;43.852;25.952;2023-02-28T05:37:02;17.05;;;10.57;;
71558;SDS011;59382;43.852;25.952;2023-02-28T05:39:28;14.85;;;9.55;;
71558;SDS011;59382;43.852;25.952;2023-02-28T05:41:53;13.88;;;9.55;;
71558;SDS011;59382;43.852;25.952;2023-02-28T05:44:19;16.50;;;10.70;;
71558;SDS011;59382;43.852;25.952;2023-02-28T05:46:44;16.08;;;9.30;;
71558;SDS011;59382;43.852;25.952;2023-02-28T05:49:10;17.33;;;9.13;;
71558;SDS011;59382;43.852;25.952;2023-02-28T05:51:36;16.02;;;10.18;;
71558;SDS011;59382;43.852;25.952;2023-02-28T05:54:05;15.93;;;8.93;;
71558;SDS011;59382;43.852;25.952;2023-02-28T05:56:31;16.10;;;9.90;;
71558;SDS011;59382;43.852;25.952;2023-02-28T05:58:57;14.57;;;9.85;;
71558;SDS011;59382;43.852;25.952;2023-02-28T06:01:33;13.90;;;8.90;;
71558;SDS011;59382;43.852;25.952;2023-02-28T06:04:03;15.80;;;9.77;;
71558;SDS011;59382;43.852;25.952;2023-02-28T06:06:31;16.33;;;9.52;;
71558;SDS011;59382;43.852;25.952;2023-02-28T06:08:56;17.58;;;10.10;;
71558;SDS011;59382;43.852;25.952;2023-02-28T06:11:22;17.95;;;9.70;;
71558;SDS011;59382;43.852;25.952;2023-02-28T06:14:01;14.70;;;9.57;;
71558;SDS011;59382;43.852;25.952;2023-02-28T06:16:27;13.50;;;9.30;;
71558;SDS011;59382;43.852;25.952;2023-02-28T06:18:54;16.20;;;9.20;;
71558;SDS011;59382;43.852;25.952;2023-02-28T06:21:22;15.57;;;9.05;;
71558;SDS011;59382;43.852;25.952;2023-02-28T06:23:48;14.57;;;9.65;;
71558;SDS011;59382;43.852;25.952;2023-02-28T06:26:13;13.73;;;9.95;;
71558;SDS011;59382;43.852;25.952;2023-02-28T06:28:39;13.98;;;8.55;;
71558;SDS011;59382;43.852;25.952;2023-02-28T06:31:06;13.98;;;8.98;;
71558;SDS011;59382;43.852;25.952;2023-02-28T06:33:33;15.05;;;10.05;;
71558;SDS011;59382;43.852;25.952;2023-02-28T06:35:59;15.93;;;10.45;;
71558;SDS011;59382;43.852;25.952;2023-02-28T06:38:25;15.93;;;9.35;;
71558;SDS011;59382;43.852;25.952;2023-02-28T06:40:54;16.27;;;9.82;;
71558;SDS011;59382;43.852;25.952;2023-02-28T06:43:21;16.30;;;10.18;;
71558;SDS011;59382;43.852;25.952;2023-02-28T06:45:47;14.10;;;9.55;;
71558;SDS011;59382;43.852;25.952;2023-02-28T06:48:13;17.17;;;10.52;;
71558;SDS011;59382;43.852;25.952;2023-02-28T06:50:38;21.17;;;11.68;;
71558;SDS011;59382;43.852;25.952;2023-02-28T06:53:05;18.38;;;10.98;;
71558;SDS011;59382;43.852;25.952;2023-02-28T06:55:30;17.77;;;11.52;;
71558;SDS011;59382;43.852;25.952;2023-02-28T06:57:56;16.52;;;10.52;;
71558;SDS011;59382;43.852;25.952;2023-02-28T07:00:22;17.05;;;10.68;;
71558;SDS011;59382;43.852;25.952;2023-02-28T07:02:48;15.32;;;11.32;;
71558;SDS011;59382;43.852;25.952;2023-02-28T07:05:14;16.10;;;10.18;;
71558;SDS011;59382;43.852;25.952;2023-02-28T07:07:39;19.58;;;9.60;;
71558;SDS011;59382;43.852;25.952;2023-02-28T07:10:09;16.73;;;10.40;;
71558;SDS011;59382;43.852;25.952;2023-02-28T07:12:36;17.05;;;10.30;;
71558;SDS011;59382;43.852;25.952;2023-02-28T07:15:03;17.92;;;10.77;;
71558;SDS011;59382;43.852;25.952;2023-02-28T07:17:29;17.55;;;10.85;;
71558;SDS011;59382;43.852;25.952;2023-02-28T07:19:55;16.70;;;10.07;;
71558;SDS011;59382;43.852;25.952;2023-02-28T07:22:21;17.63;;;10.38;;
71558;SDS011;59382;43.852;25.952;2023-02-28T07:24:46;15.13;;;10.07;;
71558;SDS011;59382;43.852;25.952;2023-02-28T07:27:15;20.23;;;10.23;;
71558;SDS011;59382;43.852;25.952;2023-02-28T07:29:49;21.05;;;12.90;;
71558;SDS011;59382;43.852;25.952;2023-02-28T07:32:15;28.10;;;15.63;;
71558;SDS011;59382;43.852;25.952;2023-02-28T07:34:41;16.77;;;10.23;;
71558;SDS011;59382;43.852;25.952;2023-02-28T07:37:07;19.08;;;11.82;;
71558;SDS011;59382;43.852;25.952;2023-02-28T07:39:32;16.63;;;11.07;;
71558;SDS011;59382;43.852;25.952;2023-02-28T07:41:58;51.55;;;22.77;;
71558;SDS011;59382;43.852;25.952;2023-02-28T07:44:26;31.13;;;18.50;;
71558;SDS011;59382;43.852;25.952;2023-02-28T07:46:52;18.58;;;12.65;;
71558;SDS011;59382;43.852;25.952;2023-02-28T07:49:18;16.92;;;12.10;;
71558;SDS011;59382;43.852;25.952;2023-02-28T07:51:44;16.80;;;11.52;;
71558;SDS011;59382;43.852;25.952;2023-02-28T07:54:10;16.05;;;10.52;;
71558;SDS011;59382;43.852;25.952;2023-02-28T07:56:35;16.90;;;11.10;;
71558;SDS011;59382;43.852;25.952;2023-02-28T07:59:04;17.92;;;10.35;;
71558;SDS011;59382;43.852;25.952;2023-02-28T08:01:30;29.23;;;14.48;;
71558;SDS011;59382;43.852;25.952;2023-02-28T08:03:55;23.10;;;13.60;;
71558;SDS011;59382;43.852;25.952;2023-02-28T08:06:22;17.15;;;9.88;;
71558;SDS011;59382;43.852;25.952;2023-02-28T08:08:49;17.30;;;11.02;;
71558;SDS011;59382;43.852;25.952;2023-02-28T08:11:15;17.50;;;10.68;;
71558;SDS011;59382;43.852;25.952;2023-02-28T08:13:41;18.73;;;11.40;;
71558;SDS011;59382;43.852;25.952;2023-02-28T08:16:09;14.27;;;9.00;;
71558;SDS011;59382;43.852;25.952;2023-02-28T08:18:35;20.10;;;12.13;;
71558;SDS011;59382;43.852;25.952;2023-02-28T08:21:06;16.40;;;10.18;;
71558;SDS011;59382;43.852;25.952;2023-02-28T08:23:32;21.23;;;10.80;;
71558;SDS011;59382;43.852;25.952;2023-02-28T08:25:59;16.70;;;10.65;;
71558;SDS011;59382;43.852;25.952;2023-02-28T08:28:25;20.27;;;11.55;;
71558;SDS011;59382;43.852;25.952;2023-02-28T08:30:52;21.05;;;13.02;;
71558;SDS011;59382;43.852;25.952;2023-02-28T08:33:17;17.45;;;11.35;;
71558;SDS011;59382;43.852;25.952;2023-02-28T08:35:43;17.48;;;11.07;;
71558;SDS011;59382;43.852;25.952;2023-02-28T08:38:08;20.38;;;12.13;;
71558;SDS011;59382;43.852;25.952;2023-02-28T08:40:34;21.63;;;10.85;;
71558;SDS011;59382;43.852;25.952;2023-02-28T08:42:59;17.83;;;11.70;;
71558;SDS011;59382;43.852;25.952;2023-02-28T08:45:25;17.15;;;10.93;;
71558;SDS011;59382;43.852;25.952;2023-02-28T08:47:50;18.83;;;11.20;;
71558;SDS011;59382;43.852;25.952;2023-02-28T08:50:17;15.18;;;10.90;;
71558;SDS011;59382;43.852;25.952;2023-02-28T08:52:43;18.25;;;10.80;;
71558;SDS011;59382;43.852;25.952;2023-02-28T08:55:09;19.48;;;11.40;;
71558;SDS011;59382;43.852;25.952;2023-02-28T08:57:35;17.33;;;10.70;;
71558;SDS011;59382;43.852;25.952;2023-02-28T09:00:02;18.48;;;10.13;;
71558;SDS011;59382;43.852;25.952;2023-02-28T09:02:30;17.35;;;10.73;;
71558;SDS011;59382;43.852;25.952;2023-02-28T09:04:59;17.25;;;11.40;;
71558;SDS011;59382;43.852;25.952;2023-02-28T09:07:24;20.33;;;10.70;;
71558;SDS011;59382;43.852;25.952;2023-02-28T09:09:50;15.88;;;10.32;;
71558;SDS011;59382;43.852;25.952;2023-02-28T09:12:22;15.23;;;10.05;;
71558;SDS011;59382;43.852;25.952;2023-02-28T09:14:49;15.82;;;10.55;;
71558;SDS011;59382;43.852;25.952;2023-02-28T09:17:15;13.80;;;10.10;;
71558;SDS011;59382;43.852;25.952;2023-02-28T09:19:41;17.63;;;11.00;;
71558;SDS011;59382;43.852;25.952;2023-02-28T09:22:07;14.77;;;9.55;;
71558;SDS011;59382;43.852;25.952;2023-02-28T09:24:35;15.82;;;9.77;;
71558;SDS011;59382;43.852;25.952;2023-02-28T09:27:01;15.30;;;9.77;;
71558;SDS011;59382;43.852;25.952;2023-02-28T09:29:26;13.68;;;9.80;;
71558;SDS011;59382;43.852;25.952;2023-02-28T09:31:52;16.25;;;9.73;;
71558;SDS011;59382;43.852;25.952;2023-02-28T09:34:17;21.88;;;10.75;;
71558;SDS011;59382;43.852;25.952;2023-02-28T09:36:43;15.32;;;9.45;;
71558;SDS011;59382;43.852;25.952;2023-02-28T09:39:08;14.43;;;9.35;;
71558;SDS011;59382;43.852;25.952;2023-02-28T09:41:39;15.98;;;10.90;;
71558;SDS011;59382;43.852;25.952;2023-02-28T09:44:26;18.75;;;10.65;;
71558;SDS011;59382;43.852;25.952;2023-02-28T09:47:13;16.98;;;10.10;;
71558;SDS011;59382;43.852;25.952;2023-02-28T09:49:47;15.68;;;10.40;;
71558;SDS011;59382;43.852;25.952;2023-02-28T09:52:15;19.80;;;10.10;;
71558;SDS011;59382;43.852;25.952;2023-02-28T09:54:44;18.55;;;11.70;;
71558;SDS011;59382;43.852;25.952;2023-02-28T10:05:05;15.68;;;11.20;;
71558;SDS011;59382;43.852;25.952;2023-02-28T10:10:36;14.80;;;9.70;;
71558;SDS011;59382;43.852;25.952;2023-02-28T10:16:17;14.20;;;9.50;;
71558;SDS011;59382;43.852;25.952;2023-02-28T10:18:52;13.55;;;9.15;;
71558;SDS011;59382;43.852;25.952;2023-02-28T10:21:44;16.48;;;10.35;;
71558;SDS011;59382;43.852;25.952;2023-02-28T10:26:48;25.45;;;15.68;;
71558;SDS011;59382;43.852;25.952;2023-02-28T10:29:14;21.75;;;13.48;;
71558;SDS011;59382;43.852;25.952;2023-02-28T10:31:40;16.35;;;9.85;;
71558;SDS011;59382;43.852;25.952;2023-02-28T10:34:06;15.95;;;11.10;;
71558;SDS011;59382;43.852;25.952;2023-02-28T10:36:36;19.52;;;11.18;;
71558;SDS011;59382;43.852;25.952;2023-02-28T10:39:03;17.33;;;9.77;;
71558;SDS011;59382;43.852;25.952;2023-02-28T10:41:59;15.57;;;10.13;;
71558;SDS011;59382;43.852;25.952;2023-02-28T10:44:25;17.15;;;9.38;;
71558;SDS011;59382;43.852;25.952;2023-02-28T10:46:50;18.42;;;9.90;;
71558;SDS011;59382;43.852;25.952;2023-02-28T10:49:17;16.40;;;10.07;;
71558;SDS011;59382;43.852;25.952;2023-02-28T10:51:46;15.40;;;10.60;;
71558;SDS011;59382;43.852;25.952;2023-02-28T10:54:50;16.40;;;10.13;;
71558;SDS011;59382;43.852;25.952;2023-02-28T10:57:20;15.90;;;10.07;;
71558;SDS011;59382;43.852;25.952;2023-02-28T10:59:52;18.60;;;9.77;;
71558;SDS011;59382;43.852;25.952;2023-02-28T11:02:35;15.90;;;9.75;;
71558;SDS011;59382;43.852;25.952;2023-02-28T11:05:21;21.40;;;10.50;;
71558;SDS011;59382;43.852;25.952;2023-02-28T11:07:52;18.13;;;11.30;;
71558;SDS011;59382;43.852;25.952;2023-02-28T11:10:19;17.83;;;11.05;;
71558;SDS011;59382;43.852;25.952;2023-02-28T11:12:46;19.70;;;10.90;;
71558;SDS011;59382;43.852;25.952;2023-02-28T11:15:34;19.45;;;11.60;;
71558;SDS011;59382;43.852;25.952;2023-02-28T11:20:41;17.83;;;10.00;;
71558;SDS011;59382;43.852;25.952;2023-02-28T11:23:10;18.58;;;10.65;;
71558;SDS011;59382;43.852;25.952;2023-02-28T11:25:39;15.75;;;10.80;;
71558;SDS011;59382;43.852;25.952;2023-02-28T11:28:50;21.65;;;11.80;;
71558;SDS011;59382;43.852;25.952;2023-02-28T11:31:15;17.90;;;10.18;;
71558;SDS011;59382;43.852;25.952;2023-02-28T11:36:30;18.67;;;11.60;;
71558;SDS011;59382;43.852;25.952;2023-02-28T11:39:00;18.75;;;11.40;;
71558;SDS011;59382;43.852;25.952;2023-02-28T11:53:12;19.58;;;12.15;;
71558;SDS011;59382;43.852;25.952;2023-02-28T11:55:38;20.52;;;11.70;;
71558;SDS011;59382;43.852;25.952;2023-02-28T12:04:12;17.15;;;11.27;;
71558;SDS011;59382;43.852;25.952;2023-02-28T12:12:21;20.92;;;11.07;;
71558;SDS011;59382;43.852;25.952;2023-02-28T12:28:06;21.52;;;11.90;;
71558;SDS011;59382;43.852;25.952;2023-02-28T12:30:36;22.73;;;12.02;;
71558;SDS011;59382;43.852;25.952;2023-02-28T12:33:12;18.52;;;11.77;;
71558;SDS011;59382;43.852;25.952;2023-02-28T12:43:58;17.58;;;11.23;;
71558;SDS011;59382;43.852;25.952;2023-02-28T12:46:39;23.45;;;13.65;;
71558;SDS011;59382;43.852;25.952;2023-02-28T12:49:10;33.10;;;19.70;;
71558;SDS011;59382;43.852;25.952;2023-02-28T12:51:41;26.67;;;15.38;;
71558;SDS011;59382;43.852;25.952;2023-02-28T13:10:16;17.98;;;11.98;;
71558;SDS011;59382;43.852;25.952;2023-02-28T13:12:47;23.30;;;13.02;;
71558;SDS011;59382;43.852;25.952;2023-02-28T13:15:18;23.02;;;12.73;;
71558;SDS011;59382;43.852;25.952;2023-02-28T13:17:50;20.42;;;11.93;;
71558;SDS011;59382;43.852;25.952;2023-02-28T13:20:25;18.88;;;13.15;;
71558;SDS011;59382;43.852;25.952;2023-02-28T13:22:54;21.50;;;12.07;;
71558;SDS011;59382;43.852;25.952;2023-02-28T13:27:47;18.65;;;11.70;;
71558;SDS011;59382;43.852;25.952;2023-02-28T13:38:45;20.73;;;11.70;;
71558;SDS011;59382;43.852;25.952;2023-02-28T13:44:00;18.23;;;9.85;;
71558;SDS011;59382;43.852;25.952;2023-02-28T13:58:08;13.85;;;9.82;;
71558;SDS011;59382;43.852;25.952;2023-02-28T14:05:21;14.63;;;9.98;;
71558;SDS011;59382;43.852;25.952;2023-02-28T14:08:34;14.10;;;9.82;;
71558;SDS011;59382;43.852;25.952;2023-02-28T14:10:46;16.75;;;10.38;;
71558;SDS011;59382;43.852;25.952;2023-02-28T14:16:09;18.88;;;10.32;;
71558;SDS011;59382;43.852;25.952;2023-02-28T14:18:37;15.95;;;10.63;;
71558;SDS011;59382;43.852;25.952;2023-02-28T14:21:27;17.35;;;10.52;;
71558;SDS011;59382;43.852;25.952;2023-02-28T14:29:42;19.38;;;9.73;;
71558;SDS011;59382;43.852;25.952;2023-02-28T14:38:05;17.42;;;9.45;;
71558;SDS011;59382;43.852;25.952;2023-02-28T14:40:38;18.70;;;9.23;;
71558;SDS011;59382;43.852;25.952;2023-02-28T14:43:06;12.20;;;9.07;;
71558;SDS011;59382;43.852;25.952;2023-02-28T14:45:48;21.48;;;10.95;;
71558;SDS011;59382;43.852;25.952;2023-02-28T14:48:16;14.55;;;9.88;;
71558;SDS011;59382;43.852;25.952;2023-02-28T14:50:48;15.07;;;10.40;;
71558;SDS011;59382;43.852;25.952;2023-02-28T14:53:17;12.88;;;9.45;;
71558;SDS011;59382;43.852;25.952;2023-02-28T14:55:45;15.32;;;10.15;;
71558;SDS011;59382;43.852;25.952;2023-02-28T15:00:52;17.05;;;9.77;;
71558;SDS011;59382;43.852;25.952;2023-02-28T15:05:55;15.00;;;10.25;;
71558;SDS011;59382;43.852;25.952;2023-02-28T15:08:23;17.73;;;9.27;;
71558;SDS011;59382;43.852;25.952;2023-02-28T15:10:58;14.23;;;10.02;;
71558;SDS011;59382;43.852;25.952;2023-02-28T15:13:34;13.65;;;8.77;;
71558;SDS011;59382;43.852;25.952;2023-02-28T15:16:55;14.20;;;9.38;;
71558;SDS011;59382;43.852;25.952;2023-02-28T15:18:57;21.80;;;10.55;;
71558;SDS011;59382;43.852;25.952;2023-02-28T15:21:26;20.27;;;10.23;;
71558;SDS011;59382;43.852;25.952;2023-02-28T15:27:11;20.02;;;10.40;;
71558;SDS011;59382;43.852;25.952;2023-02-28T15:29:47;13.02;;;9.45;;
71558;SDS011;59382;43.852;25.952;2023-02-28T15:32:30;17.48;;;9.73;;
71558;SDS011;59382;43.852;25.952;2023-02-28T15:34:58;16.58;;;9.57;;
71558;SDS011;59382;43.852;25.952;2023-02-28T15:37:46;16.27;;;9.75;;
71558;SDS011;59382;43.852;25.952;2023-02-28T15:48:17;13.70;;;9.75;;
71558;SDS011;59382;43.852;25.952;2023-02-28T15:50:52;18.40;;;12.10;;
71558;SDS011;59382;43.852;25.952;2023-02-28T15:53:25;15.57;;;11.15;;
71558;SDS011;59382;43.852;25.952;2023-02-28T15:56:06;16.90;;;10.48;;
71558;SDS011;59382;43.852;25.952;2023-02-28T15:59:02;18.63;;;11.80;;
71558;SDS011;59382;43.852;25.952;2023-02-28T16:01:33;21.02;;;12.05;;
71558;SDS011;59382;43.852;25.952;2023-02-28T16:04:01;22.00;;;12.55;;
71558;SDS011;59382;43.852;25.952;2023-02-28T16:09:09;21.67;;;11.85;;
71558;SDS011;59382;43.852;25.952;2023-02-28T16:11:41;20.85;;;13.02;;
71558;SDS011;59382;43.852;25.952;2023-02-28T16:14:14;20.20;;;13.25;;
71558;SDS011;59382;43.852;25.952;2023-02-28T16:16:43;21.70;;;13.63;;
71558;SDS011;59382;43.852;25.952;2023-02-28T16:19:13;20.02;;;12.45;;
71558;SDS011;59382;43.852;25.952;2023-02-28T16:21:38;20.00;;;12.52;;
71558;SDS011;59382;43.852;25.952;2023-02-28T16:24:04;21.73;;;13.70;;
71558;SDS011;59382;43.852;25.952;2023-02-28T16:26:30;24.23;;;14.02;;
71558;SDS011;59382;43.852;25.952;2023-02-28T16:28:58;19.65;;;12.60;;
71558;SDS011;59382;43.852;25.952;2023-02-28T16:31:25;21.55;;;14.70;;
71558;SDS011;59382;43.852;25.952;2023-02-28T16:33:50;24.00;;;12.63;;
71558;SDS011;59382;43.852;25.952;2023-02-28T16:36:17;24.40;;;14.05;;
71558;SDS011;59382;43.852;25.952;2023-02-28T16:38:46;24.17;;;13.70;;
71558;SDS011;59382;43.852;25.952;2023-02-28T16:41:12;25.70;;;13.98;;
71558;SDS011;59382;43.852;25.952;2023-02-28T16:43:47;24.30;;;14.20;;
71558;SDS011;59382;43.852;25.952;2023-02-28T16:46:15;23.73;;;13.40;;
71558;SDS011;59382;43.852;25.952;2023-02-28T16:48:42;23.45;;;13.68;;
71558;SDS011;59382;43.852;25.952;2023-02-28T16:51:12;21.45;;;13.57;;
71558;SDS011;59382;43.852;25.952;2023-02-28T16:53:40;23.50;;;14.20;;
71558;SDS011;59382;43.852;25.952;2023-02-28T16:56:05;20.75;;;13.30;;
71558;SDS011;59382;43.852;25.952;2023-02-28T16:58:32;24.98;;;14.93;;
71558;SDS011;59382;43.852;25.952;2023-02-28T17:01:02;25.02;;;15.20;;
71558;SDS011;59382;43.852;25.952;2023-02-28T17:03:28;28.23;;;14.48;;
71558;SDS011;59382;43.852;25.952;2023-02-28T17:05:54;31.15;;;15.13;;
71558;SDS011;59382;43.852;25.952;2023-02-28T17:08:20;28.00;;;15.63;;
71558;SDS011;59382;43.852;25.952;2023-02-28T17:10:46;25.23;;;14.48;;
71558;SDS011;59382;43.852;25.952;2023-02-28T17:13:11;25.55;;;15.13;;
71558;SDS011;59382;43.852;25.952;2023-02-28T17:15:37;20.73;;;13.15;;
71558;SDS011;59382;43.852;25.952;2023-02-28T17:18:03;33.45;;;17.05;;
71558;SDS011;59382;43.852;25.952;2023-02-28T17:20:30;32.60;;;17.48;;
71558;SDS011;59382;43.852;25.952;2023-02-28T17:22:57;25.10;;;15.43;;
71558;SDS011;59382;43.852;25.952;2023-02-28T17:25:23;22.80;;;15.30;;
71558;SDS011;59382;43.852;25.952;2023-02-28T17:27:49;24.90;;;13.57;;
71558;SDS011;59382;43.852;25.952;2023-02-28T17:30:20;27.85;;;14.13;;
71558;SDS011;59382;43.852;25.952;2023-02-28T17:32:48;21.83;;;12.80;;
71558;SDS011;59382;43.852;25.952;2023-02-28T17:35:13;21.50;;;13.85;;
71558;SDS011;59382;43.852;25.952;2023-02-28T17:37:39;25.65;;;13.57;;